Terminal Aerodrome Forecast
Issued by NWS Boston, MA

Home | Current Version | Previous Version | Text Only | Print | Product List | Glossary On
Versions: 1 2 3 4 5 6 7 8 9 10 11 12 13 14 15 16 17 18 19 20 21
000
FTUS41 KBOX 230536
TAFPVD
TAF
KPVD 230536Z 2306/2406 22011G19KT P6SM -SHRA OVC015
     FM230700 22010G18KT P6SM -SHRA BKN025
     FM230900 22008KT P6SM VCSH SCT025 BKN050
     FM231000 23006KT P6SM -SHRA BKN050
     FM231300 29010KT P6SM BKN060
     FM231700 29010KT P6SM SCT250
     FM240000 29006KT P6SM SCT250=

USA.gov is the U.S. government's official web portal to all federal, state and local government web resources and services.